sensor_id;sensor_type;location;lat;lon;timestamp;temperature;humidity
46676;DHT22;32412;51.478;5.694;2022-09-17T00:00:51;10.30;99.90
46676;DHT22;32412;51.478;5.694;2022-09-17T00:03:17;10.20;99.90
46676;DHT22;32412;51.478;5.694;2022-09-17T00:05:43;10.20;99.90
46676;DHT22;32412;51.478;5.694;2022-09-17T00:08:12;10.20;99.90
46676;DHT22;32412;51.478;5.694;2022-09-17T00:10:42;10.20;99.90
46676;DHT22;32412;51.478;5.694;2022-09-17T00:13:08;10.30;99.90
46676;DHT22;32412;51.478;5.694;2022-09-17T00:15:42;10.30;99.90
46676;DHT22;32412;51.478;5.694;2022-09-17T00:18:09;10.30;99.90
46676;DHT22;32412;51.478;5.694;2022-09-17T00:20:42;10.30;99.90
46676;DHT22;32412;51.478;5.694;2022-09-17T00:23:09;10.30;99.90
46676;DHT22;32412;51.478;5.694;2022-09-17T00:25:39;10.30;99.90
46676;DHT22;32412;51.478;5.694;2022-09-17T00:28:05;10.40;99.90
46676;DHT22;32412;51.478;5.694;2022-09-17T00:30:31;10.40;99.90
46676;DHT22;32412;51.478;5.694;2022-09-17T00:32:57;10.50;99.90
46676;DHT22;32412;51.478;5.694;2022-09-17T00:35:26;10.50;99.90
46676;DHT22;32412;51.478;5.694;2022-09-17T00:37:53;10.60;99.90
46676;DHT22;32412;51.478;5.694;2022-09-17T00:40:19;10.50;99.90
46676;DHT22;32412;51.478;5.694;2022-09-17T00:42:45;10.60;99.90
46676;DHT22;32412;51.478;5.694;2022-09-17T00:45:11;10.60;99.90
46676;DHT22;32412;51.478;5.694;2022-09-17T00:47:37;10.60;99.90
46676;DHT22;32412;51.478;5.694;2022-09-17T00:50:14;10.70;99.90
46676;DHT22;32412;51.478;5.694;2022-09-17T00:52:48;10.60;99.90
46676;DHT22;32412;51.478;5.694;2022-09-17T00:55:24;10.60;99.90
46676;DHT22;32412;51.478;5.694;2022-09-17T00:57:53;10.70;99.90
46676;DHT22;32412;51.478;5.694;2022-09-17T01:00:20;10.70;99.90
46676;DHT22;32412;51.478;5.694;2022-09-17T01:02:46;10.80;99.90
46676;DHT22;32412;51.478;5.694;2022-09-17T01:05:12;10.80;99.90
46676;DHT22;32412;51.478;5.694;2022-09-17T01:07:46;10.80;99.90
46676;DHT22;32412;51.478;5.694;2022-09-17T01:16:16;10.80;99.90
46676;DHT22;32412;51.478;5.694;2022-09-17T01:19:09;10.80;99.90
46676;DHT22;32412;51.478;5.694;2022-09-17T01:27:03;10.70;99.90
46676;DHT22;32412;51.478;5.694;2022-09-17T01:29:58;10.70;99.90
46676;DHT22;32412;51.478;5.694;2022-09-17T01:32:37;10.70;99.90
46676;DHT22;32412;51.478;5.694;2022-09-17T01:38:03;10.70;99.90
46676;DHT22;32412;51.478;5.694;2022-09-17T01:40:38;10.70;99.90
46676;DHT22;32412;51.478;5.694;2022-09-17T01:43:31;10.80;99.90
46676;DHT22;32412;51.478;5.694;2022-09-17T01:48:36;10.80;99.90
46676;DHT22;32412;51.478;5.694;2022-09-17T01:56:19;10.80;99.90
46676;DHT22;32412;51.478;5.694;2022-09-17T01:58:57;10.80;99.90
46676;DHT22;32412;51.478;5.694;2022-09-17T02:01:24;10.70;99.90
46676;DHT22;32412;51.478;5.694;2022-09-17T02:04:09;10.70;99.90
46676;DHT22;32412;51.478;5.694;2022-09-17T02:06:38;10.70;99.90
46676;DHT22;32412;51.478;5.694;2022-09-17T02:09:17;10.60;99.90
46676;DHT22;32412;51.478;5.694;2022-09-17T02:11:49;10.60;99.90
46676;DHT22;32412;51.478;5.694;2022-09-17T02:18:28;10.50;99.90
46676;DHT22;32412;51.478;5.694;2022-09-17T02:20:31;10.40;99.90
46676;DHT22;32412;51.478;5.694;2022-09-17T02:23:05;10.40;99.90
46676;DHT22;32412;51.478;5.694;2022-09-17T02:25:36;10.40;99.90
46676;DHT22;32412;51.478;5.694;2022-09-17T02:29:13;10.30;99.90
46676;DHT22;32412;51.478;5.694;2022-09-17T02:31:06;10.30;99.90
46676;DHT22;32412;51.478;5.694;2022-09-17T02:33:33;10.30;99.90
46676;DHT22;32412;51.478;5.694;2022-09-17T02:36:00;10.40;99.90
46676;DHT22;32412;51.478;5.694;2022-09-17T02:38:28;10.50;99.90
46676;DHT22;32412;51.478;5.694;2022-09-17T02:41:21;10.50;99.90
46676;DHT22;32412;51.478;5.694;2022-09-17T02:54:44;10.50;99.90
46676;DHT22;32412;51.478;5.694;2022-09-17T03:02:42;10.50;99.90
46676;DHT22;32412;51.478;5.694;2022-09-17T03:05:10;10.40;99.90
46676;DHT22;32412;51.478;5.694;2022-09-17T03:07:36;10.40;99.90
46676;DHT22;32412;51.478;5.694;2022-09-17T03:10:03;10.40;99.90
46676;DHT22;32412;51.478;5.694;2022-09-17T03:12:30;10.40;99.90
46676;DHT22;32412;51.478;5.694;2022-09-17T03:14:55;10.30;99.90
46676;DHT22;32412;51.478;5.694;2022-09-17T03:17:21;10.40;99.90
46676;DHT22;32412;51.478;5.694;2022-09-17T03:19:47;10.50;99.90
46676;DHT22;32412;51.478;5.694;2022-09-17T03:22:13;10.50;99.90
46676;DHT22;32412;51.478;5.694;2022-09-17T03:24:38;10.50;99.90
46676;DHT22;32412;51.478;5.694;2022-09-17T03:27:04;10.50;99.90
46676;DHT22;32412;51.478;5.694;2022-09-17T03:29:30;10.60;99.90
46676;DHT22;32412;51.478;5.694;2022-09-17T03:31:55;10.60;99.90
46676;DHT22;32412;51.478;5.694;2022-09-17T03:34:21;10.60;99.90
46676;DHT22;32412;51.478;5.694;2022-09-17T03:36:48;10.60;99.90
46676;DHT22;32412;51.478;5.694;2022-09-17T03:39:13;10.50;99.90
46676;DHT22;32412;51.478;5.694;2022-09-17T03:41:39;10.40;99.90
46676;DHT22;32412;51.478;5.694;2022-09-17T03:44:05;10.40;99.90
46676;DHT22;32412;51.478;5.694;2022-09-17T03:46:31;10.40;99.90
46676;DHT22;32412;51.478;5.694;2022-09-17T03:48:56;10.30;99.90
46676;DHT22;32412;51.478;5.694;2022-09-17T03:51:22;10.30;99.90
46676;DHT22;32412;51.478;5.694;2022-09-17T03:53:48;10.40;99.90
46676;DHT22;32412;51.478;5.694;2022-09-17T03:56:13;10.40;99.90
46676;DHT22;32412;51.478;5.694;2022-09-17T03:58:39;10.50;99.90
46676;DHT22;32412;51.478;5.694;2022-09-17T04:01:05;10.50;99.90
46676;DHT22;32412;51.478;5.694;2022-09-17T04:03:31;10.50;99.90
46676;DHT22;32412;51.478;5.694;2022-09-17T04:05:56;10.50;99.90
46676;DHT22;32412;51.478;5.694;2022-09-17T04:08:22;10.40;99.90
46676;DHT22;32412;51.478;5.694;2022-09-17T04:10:48;10.40;99.90
46676;DHT22;32412;51.478;5.694;2022-09-17T04:13:16;10.40;99.90
46676;DHT22;32412;51.478;5.694;2022-09-17T04:15:43;10.30;99.90
46676;DHT22;32412;51.478;5.694;2022-09-17T04:18:09;10.30;99.90
46676;DHT22;32412;51.478;5.694;2022-09-17T04:20:35;10.30;99.90
46676;DHT22;32412;51.478;5.694;2022-09-17T04:23:01;10.30;99.90
46676;DHT22;32412;51.478;5.694;2022-09-17T04:25:26;10.40;99.90
46676;DHT22;32412;51.478;5.694;2022-09-17T04:27:52;10.40;99.90
46676;DHT22;32412;51.478;5.694;2022-09-17T04:30:18;10.40;99.90
46676;DHT22;32412;51.478;5.694;2022-09-17T04:32:44;10.30;99.90
46676;DHT22;32412;51.478;5.694;2022-09-17T04:35:10;10.30;99.90
46676;DHT22;32412;51.478;5.694;2022-09-17T04:37:36;10.20;99.90
46676;DHT22;32412;51.478;5.694;2022-09-17T04:40:02;10.10;99.90
46676;DHT22;32412;51.478;5.694;2022-09-17T04:42:28;10.10;99.90
46676;DHT22;32412;51.478;5.694;2022-09-17T04:44:54;10.10;99.90
46676;DHT22;32412;51.478;5.694;2022-09-17T04:47:19;10.00;99.90
46676;DHT22;32412;51.478;5.694;2022-09-17T04:49:45;9.90;99.90
46676;DHT22;32412;51.478;5.694;2022-09-17T04:52:11;9.90;99.90
46676;DHT22;32412;51.478;5.694;2022-09-17T04:54:36;9.90;99.90
46676;DHT22;32412;51.478;5.694;2022-09-17T04:57:02;9.90;99.90
46676;DHT22;32412;51.478;5.694;2022-09-17T04:59:28;9.80;99.90
46676;DHT22;32412;51.478;5.694;2022-09-17T05:01:54;9.90;99.90
46676;DHT22;32412;51.478;5.694;2022-09-17T05:04:19;9.80;99.90
46676;DHT22;32412;51.478;5.694;2022-09-17T05:06:45;9.90;99.90
46676;DHT22;32412;51.478;5.694;2022-09-17T05:09:13;9.80;99.90
46676;DHT22;32412;51.478;5.694;2022-09-17T05:11:39;9.80;99.90
46676;DHT22;32412;51.478;5.694;2022-09-17T05:14:06;9.80;99.90
46676;DHT22;32412;51.478;5.694;2022-09-17T05:16:31;9.80;99.90
46676;DHT22;32412;51.478;5.694;2022-09-17T05:18:57;9.70;99.90
46676;DHT22;32412;51.478;5.694;2022-09-17T05:21:23;9.70;99.90
46676;DHT22;32412;51.478;5.694;2022-09-17T05:23:48;9.70;99.90
46676;DHT22;32412;51.478;5.694;2022-09-17T05:26:14;9.70;99.90
46676;DHT22;32412;51.478;5.694;2022-09-17T05:28:40;9.70;99.90
46676;DHT22;32412;51.478;5.694;2022-09-17T05:31:06;9.70;99.90
46676;DHT22;32412;51.478;5.694;2022-09-17T05:33:31;9.60;99.90
46676;DHT22;32412;51.478;5.694;2022-09-17T05:35:57;9.60;99.90
46676;DHT22;32412;51.478;5.694;2022-09-17T05:38:24;9.60;99.90
46676;DHT22;32412;51.478;5.694;2022-09-17T05:40:50;9.60;99.90
46676;DHT22;32412;51.478;5.694;2022-09-17T05:43:15;9.60;99.90
46676;DHT22;32412;51.478;5.694;2022-09-17T05:45:41;9.60;99.90
46676;DHT22;32412;51.478;5.694;2022-09-17T05:48:10;9.70;99.90
46676;DHT22;32412;51.478;5.694;2022-09-17T05:50:36;9.70;99.90
46676;DHT22;32412;51.478;5.694;2022-09-17T05:53:04;9.70;99.90
46676;DHT22;32412;51.478;5.694;2022-09-17T05:55:30;9.70;99.90
46676;DHT22;32412;51.478;5.694;2022-09-17T05:57:56;9.70;99.90
46676;DHT22;32412;51.478;5.694;2022-09-17T06:00:21;9.70;99.90
46676;DHT22;32412;51.478;5.694;2022-09-17T06:02:54;9.80;99.90
46676;DHT22;32412;51.478;5.694;2022-09-17T06:05:20;9.80;99.90
46676;DHT22;32412;51.478;5.694;2022-09-17T06:07:45;9.90;99.90
46676;DHT22;32412;51.478;5.694;2022-09-17T06:10:11;9.90;99.90
46676;DHT22;32412;51.478;5.694;2022-09-17T06:12:37;10.00;99.90
46676;DHT22;32412;51.478;5.694;2022-09-17T06:15:03;10.10;99.90
46676;DHT22;32412;51.478;5.694;2022-09-17T06:17:33;10.10;99.90
46676;DHT22;32412;51.478;5.694;2022-09-17T06:20:00;10.10;99.90
46676;DHT22;32412;51.478;5.694;2022-09-17T06:22:26;10.10;99.90
46676;DHT22;32412;51.478;5.694;2022-09-17T06:24:52;10.20;99.90
46676;DHT22;32412;51.478;5.694;2022-09-17T06:27:18;10.20;99.90
46676;DHT22;32412;51.478;5.694;2022-09-17T06:29:43;10.30;99.90
46676;DHT22;32412;51.478;5.694;2022-09-17T06:32:09;10.30;99.90
46676;DHT22;32412;51.478;5.694;2022-09-17T06:34:38;10.40;99.90
46676;DHT22;32412;51.478;5.694;2022-09-17T06:37:04;10.40;99.90
46676;DHT22;32412;51.478;5.694;2022-09-17T06:39:30;10.50;99.90
46676;DHT22;32412;51.478;5.694;2022-09-17T06:41:56;10.60;99.90
46676;DHT22;32412;51.478;5.694;2022-09-17T06:44:21;10.60;99.90
46676;DHT22;32412;51.478;5.694;2022-09-17T06:46:50;10.70;99.90
46676;DHT22;32412;51.478;5.694;2022-09-17T06:49:17;10.70;99.90
46676;DHT22;32412;51.478;5.694;2022-09-17T06:51:43;10.70;99.90
46676;DHT22;32412;51.478;5.694;2022-09-17T06:54:09;10.70;99.90
46676;DHT22;32412;51.478;5.694;2022-09-17T06:56:35;10.80;99.90
46676;DHT22;32412;51.478;5.694;2022-09-17T06:59:01;10.90;99.90
46676;DHT22;32412;51.478;5.694;2022-09-17T07:01:27;11.00;99.90
46676;DHT22;32412;51.478;5.694;2022-09-17T07:03:53;11.00;99.90
46676;DHT22;32412;51.478;5.694;2022-09-17T07:06:19;11.10;99.90
46676;DHT22;32412;51.478;5.694;2022-09-17T07:08:45;11.10;99.90
46676;DHT22;32412;51.478;5.694;2022-09-17T07:11:11;11.20;99.90
46676;DHT22;32412;51.478;5.694;2022-09-17T07:13:38;11.30;99.90
46676;DHT22;32412;51.478;5.694;2022-09-17T07:16:04;11.30;99.90
46676;DHT22;32412;51.478;5.694;2022-09-17T07:18:31;11.20;99.90
46676;DHT22;32412;51.478;5.694;2022-09-17T07:20:59;11.30;99.90
46676;DHT22;32412;51.478;5.694;2022-09-17T07:23:29;11.30;99.90
46676;DHT22;32412;51.478;5.694;2022-09-17T07:26:01;11.40;99.90
46676;DHT22;32412;51.478;5.694;2022-09-17T07:28:27;11.50;99.90
46676;DHT22;32412;51.478;5.694;2022-09-17T07:30:54;11.60;99.90
46676;DHT22;32412;51.478;5.694;2022-09-17T07:33:23;11.80;99.90
46676;DHT22;32412;51.478;5.694;2022-09-17T07:35:53;11.90;99.90
46676;DHT22;32412;51.478;5.694;2022-09-17T07:38:20;12.00;99.90
46676;DHT22;32412;51.478;5.694;2022-09-17T07:41:14;12.10;99.90
46676;DHT22;32412;51.478;5.694;2022-09-17T07:43:43;12.20;99.90
46676;DHT22;32412;51.478;5.694;2022-09-17T07:46:13;12.30;99.90
46676;DHT22;32412;51.478;5.694;2022-09-17T07:48:40;12.40;99.90
46676;DHT22;32412;51.478;5.694;2022-09-17T07:51:05;12.60;99.90
46676;DHT22;32412;51.478;5.694;2022-09-17T07:53:34;12.60;99.90
46676;DHT22;32412;51.478;5.694;2022-09-17T07:56:00;12.80;99.90
46676;DHT22;32412;51.478;5.694;2022-09-17T07:58:32;12.80;99.90
46676;DHT22;32412;51.478;5.694;2022-09-17T08:01:06;12.90;99.90
46676;DHT22;32412;51.478;5.694;2022-09-17T08:03:33;13.00;99.90
46676;DHT22;32412;51.478;5.694;2022-09-17T08:06:10;13.10;99.90
46676;DHT22;32412;51.478;5.694;2022-09-17T08:08:37;13.20;99.90
46676;DHT22;32412;51.478;5.694;2022-09-17T08:11:14;13.40;99.90
46676;DHT22;32412;51.478;5.694;2022-09-17T08:13:41;13.30;99.90
46676;DHT22;32412;51.478;5.694;2022-09-17T08:16:10;13.40;99.90
46676;DHT22;32412;51.478;5.694;2022-09-17T08:18:38;13.60;99.90
46676;DHT22;32412;51.478;5.694;2022-09-17T08:21:06;13.90;99.90
46676;DHT22;32412;51.478;5.694;2022-09-17T08:23:34;14.10;99.90
46676;DHT22;32412;51.478;5.694;2022-09-17T08:26:00;14.30;99.90
46676;DHT22;32412;51.478;5.694;2022-09-17T08:28:29;14.60;99.90
46676;DHT22;32412;51.478;5.694;2022-09-17T08:31:06;14.90;99.90
46676;DHT22;32412;51.478;5.694;2022-09-17T08:33:34;14.60;99.90
46676;DHT22;32412;51.478;5.694;2022-09-17T08:36:05;14.30;99.90
46676;DHT22;32412;51.478;5.694;2022-09-17T08:38:33;13.80;99.90
46676;DHT22;32412;51.478;5.694;2022-09-17T08:43:47;13.10;99.90
46676;DHT22;32412;51.478;5.694;2022-09-17T08:46:15;13.00;99.90
46676;DHT22;32412;51.478;5.694;2022-09-17T08:49:31;13.10;99.90
46676;DHT22;32412;51.478;5.694;2022-09-17T08:54:41;13.80;99.90
46676;DHT22;32412;51.478;5.694;2022-09-17T08:57:30;14.00;99.90
46676;DHT22;32412;51.478;5.694;2022-09-17T09:00:16;14.10;99.90
46676;DHT22;32412;51.478;5.694;2022-09-17T09:05:26;14.40;99.90
46676;DHT22;32412;51.478;5.694;2022-09-17T09:08:03;14.50;99.90
46676;DHT22;32412;51.478;5.694;2022-09-17T09:10:52;14.60;99.90
46676;DHT22;32412;51.478;5.694;2022-09-17T09:13:22;14.80;99.90
46676;DHT22;32412;51.478;5.694;2022-09-17T09:16:01;15.20;99.90
46676;DHT22;32412;51.478;5.694;2022-09-17T09:18:35;15.60;99.90
46676;DHT22;32412;51.478;5.694;2022-09-17T09:23:56;16.10;99.90
46676;DHT22;32412;51.478;5.694;2022-09-17T09:26:52;16.10;99.90
46676;DHT22;32412;51.478;5.694;2022-09-17T09:34:48;16.70;99.90
46676;DHT22;32412;51.478;5.694;2022-09-17T09:37:22;16.60;99.90
46676;DHT22;32412;51.478;5.694;2022-09-17T09:39:48;16.30;99.90
46676;DHT22;32412;51.478;5.694;2022-09-17T09:42:27;15.80;99.90
46676;DHT22;32412;51.478;5.694;2022-09-17T09:45:00;15.20;99.90
46676;DHT22;32412;51.478;5.694;2022-09-17T09:47:55;15.20;99.90
46676;DHT22;32412;51.478;5.694;2022-09-17T09:50:39;16.10;99.90
46676;DHT22;32412;51.478;5.694;2022-09-17T09:53:32;16.20;99.90
46676;DHT22;32412;51.478;5.694;2022-09-17T09:59:09;17.40;99.90
46676;DHT22;32412;51.478;5.694;2022-09-17T10:01:39;17.60;99.90
46676;DHT22;32412;51.478;5.694;2022-09-17T10:06:40;18.10;99.90
46676;DHT22;32412;51.478;5.694;2022-09-17T10:11:32;16.70;99.90
46676;DHT22;32412;51.478;5.694;2022-09-17T10:14:23;15.90;99.90
46676;DHT22;32412;51.478;5.694;2022-09-17T10:19:42;16.50;99.90
46676;DHT22;32412;51.478;5.694;2022-09-17T10:22:33;17.90;99.90
46676;DHT22;32412;51.478;5.694;2022-09-17T10:25:00;18.50;99.90
46676;DHT22;32412;51.478;5.694;2022-09-17T10:27:27;18.50;99.90
46676;DHT22;32412;51.478;5.694;2022-09-17T10:30:14;19.40;99.90
46676;DHT22;32412;51.478;5.694;2022-09-17T10:32:41;19.50;99.90
46676;DHT22;32412;51.478;5.694;2022-09-17T10:37:47;19.30;99.90
46676;DHT22;32412;51.478;5.694;2022-09-17T10:42:45;18.10;99.90
46676;DHT22;32412;51.478;5.694;2022-09-17T10:45:38;17.50;99.90
46676;DHT22;32412;51.478;5.694;2022-09-17T10:48:04;16.30;99.90
46676;DHT22;32412;51.478;5.694;2022-09-17T10:50:40;15.70;99.90
46676;DHT22;32412;51.478;5.694;2022-09-17T10:53:06;16.80;99.90
46676;DHT22;32412;51.478;5.694;2022-09-17T10:55:52;17.50;99.90
46676;DHT22;32412;51.478;5.694;2022-09-17T10:58:43;18.30;99.90
46676;DHT22;32412;51.478;5.694;2022-09-17T11:10:22;20.90;99.40
46676;DHT22;32412;51.478;5.694;2022-09-17T11:15:35;21.40;99.90
46676;DHT22;32412;51.478;5.694;2022-09-17T11:34:45;19.30;99.90
46676;DHT22;32412;51.478;5.694;2022-09-17T11:37:21;19.50;99.90
46676;DHT22;32412;51.478;5.694;2022-09-17T11:42:42;19.00;99.90
46676;DHT22;32412;51.478;5.694;2022-09-17T11:45:19;20.00;99.90
46676;DHT22;32412;51.478;5.694;2022-09-17T11:47:51;21.60;99.90
46676;DHT22;32412;51.478;5.694;2022-09-17T11:50:24;22.40;99.10
46676;DHT22;32412;51.478;5.694;2022-09-17T11:53:16;23.00;97.70
46676;DHT22;32412;51.478;5.694;2022-09-17T11:55:48;22.20;97.10
46676;DHT22;32412;51.478;5.694;2022-09-17T11:58:24;21.30;98.40
46676;DHT22;32412;51.478;5.694;2022-09-17T12:00:57;21.70;99.10
46676;DHT22;32412;51.478;5.694;2022-09-17T12:06:07;22.00;97.90
46676;DHT22;32412;51.478;5.694;2022-09-17T12:11:18;20.60;98.90
46676;DHT22;32412;51.478;5.694;2022-09-17T12:13:56;20.10;99.70
46676;DHT22;32412;51.478;5.694;2022-09-17T12:16:41;20.40;99.10
46676;DHT22;32412;51.478;5.694;2022-09-17T12:21:58;19.60;99.90
46676;DHT22;32412;51.478;5.694;2022-09-17T12:24:29;19.40;99.90
46676;DHT22;32412;51.478;5.694;2022-09-17T12:27:39;20.30;99.10
46676;DHT22;32412;51.478;5.694;2022-09-17T12:38:24;19.00;99.90
46676;DHT22;32412;51.478;5.694;2022-09-17T12:41:18;17.70;99.90
46676;DHT22;32412;51.478;5.694;2022-09-17T12:54:42;16.20;99.90
46676;DHT22;32412;51.478;5.694;2022-09-17T12:59:57;16.00;99.90
46676;DHT22;32412;51.478;5.694;2022-09-17T13:02:32;16.00;99.90
46676;DHT22;32412;51.478;5.694;2022-09-17T13:10:48;16.30;99.90
46676;DHT22;32412;51.478;5.694;2022-09-17T13:24:22;16.90;99.90
46676;DHT22;32412;51.478;5.694;2022-09-17T13:26:51;17.00;99.90
46676;DHT22;32412;51.478;5.694;2022-09-17T13:37:35;17.30;97.80
46676;DHT22;32412;51.478;5.694;2022-09-17T13:40:03;17.50;96.40
46676;DHT22;32412;51.478;5.694;2022-09-17T13:42:43;17.80;96.10
46676;DHT22;32412;51.478;5.694;2022-09-17T13:45:12;18.00;94.60
46676;DHT22;32412;51.478;5.694;2022-09-17T13:50:31;18.20;96.00
46676;DHT22;32412;51.478;5.694;2022-09-17T13:53:04;18.10;96.60
46676;DHT22;32412;51.478;5.694;2022-09-17T13:55:34;18.00;96.60
46676;DHT22;32412;51.478;5.694;2022-09-17T13:58:06;17.80;97.20
46676;DHT22;32412;51.478;5.694;2022-09-17T14:08:46;16.80;99.90
46676;DHT22;32412;51.478;5.694;2022-09-17T14:38:31;16.30;99.90
46676;DHT22;32412;51.478;5.694;2022-09-17T14:41:04;16.20;99.90
46676;DHT22;32412;51.478;5.694;2022-09-17T14:43:53;16.20;99.90
46676;DHT22;32412;51.478;5.694;2022-09-17T14:46:26;16.10;99.90
46676;DHT22;32412;51.478;5.694;2022-09-17T14:49:23;16.10;99.90
46676;DHT22;32412;51.478;5.694;2022-09-17T14:51:53;15.90;99.90
46676;DHT22;32412;51.478;5.694;2022-09-17T14:54:26;15.90;99.90
46676;DHT22;32412;51.478;5.694;2022-09-17T14:56:55;15.90;99.90
46676;DHT22;32412;51.478;5.694;2022-09-17T15:02:39;16.10;99.90
46676;DHT22;32412;51.478;5.694;2022-09-17T15:05:33;15.90;99.90
46676;DHT22;32412;51.478;5.694;2022-09-17T15:08:15;15.70;99.90
46676;DHT22;32412;51.478;5.694;2022-09-17T15:10:55;15.80;99.90
46676;DHT22;32412;51.478;5.694;2022-09-17T15:13:35;15.80;99.90
46676;DHT22;32412;51.478;5.694;2022-09-17T15:18:54;16.00;99.90
46676;DHT22;32412;51.478;5.694;2022-09-17T15:26:57;16.50;99.90
46676;DHT22;32412;51.478;5.694;2022-09-17T15:29:29;16.90;99.90
46676;DHT22;32412;51.478;5.694;2022-09-17T15:32:03;16.80;98.90
46676;DHT22;32412;51.478;5.694;2022-09-17T15:34:30;16.50;98.70
46676;DHT22;32412;51.478;5.694;2022-09-17T15:37:04;16.40;98.70
46676;DHT22;32412;51.478;5.694;2022-09-17T15:39:40;16.40;98.60
46676;DHT22;32412;51.478;5.694;2022-09-17T15:42:28;16.50;97.80
46676;DHT22;32412;51.478;5.694;2022-09-17T15:47:56;16.50;98.30
46676;DHT22;32412;51.478;5.694;2022-09-17T15:50:32;16.40;98.60
46676;DHT22;32412;51.478;5.694;2022-09-17T15:55:43;16.50;99.30
46676;DHT22;32412;51.478;5.694;2022-09-17T15:58:29;16.60;98.80
46676;DHT22;32412;51.478;5.694;2022-09-17T16:08:55;18.40;96.90
46676;DHT22;32412;51.478;5.694;2022-09-17T16:11:26;18.70;96.60
46676;DHT22;32412;51.478;5.694;2022-09-17T16:13:53;18.30;97.40
46676;DHT22;32412;51.478;5.694;2022-09-17T16:16:29;17.70;98.10
46676;DHT22;32412;51.478;5.694;2022-09-17T16:18:56;17.10;99.50
46676;DHT22;32412;51.478;5.694;2022-09-17T16:21:22;16.60;99.90
46676;DHT22;32412;51.478;5.694;2022-09-17T16:23:50;16.40;99.90
46676;DHT22;32412;51.478;5.694;2022-09-17T16:26:29;16.30;99.90
46676;DHT22;32412;51.478;5.694;2022-09-17T16:29:06;16.20;99.90
46676;DHT22;32412;51.478;5.694;2022-09-17T16:31:32;16.10;99.90
46676;DHT22;32412;51.478;5.694;2022-09-17T16:34:03;15.90;99.90
46676;DHT22;32412;51.478;5.694;2022-09-17T16:36:29;15.80;99.90
46676;DHT22;32412;51.478;5.694;2022-09-17T16:38:59;15.70;99.90
46676;DHT22;32412;51.478;5.694;2022-09-17T16:41:25;15.60;99.90
46676;DHT22;32412;51.478;5.694;2022-09-17T16:43:54;15.60;99.90
46676;DHT22;32412;51.478;5.694;2022-09-17T16:46:27;15.50;99.90
46676;DHT22;32412;51.478;5.694;2022-09-17T16:48:53;15.30;99.90
46676;DHT22;32412;51.478;5.694;2022-09-17T16:51:19;15.30;99.90
46676;DHT22;32412;51.478;5.694;2022-09-17T16:53:44;15.20;99.90
46676;DHT22;32412;51.478;5.694;2022-09-17T16:56:12;15.20;99.90
46676;DHT22;32412;51.478;5.694;2022-09-17T16:58:38;15.10;99.90
46676;DHT22;32412;51.478;5.694;2022-09-17T17:01:10;15.00;99.90
46676;DHT22;32412;51.478;5.694;2022-09-17T17:03:38;14.90;99.90
46676;DHT22;32412;51.478;5.694;2022-09-17T17:06:04;14.80;99.90
46676;DHT22;32412;51.478;5.694;2022-09-17T17:08:30;14.80;99.90
46676;DHT22;32412;51.478;5.694;2022-09-17T17:10:56;14.80;99.90
46676;DHT22;32412;51.478;5.694;2022-09-17T17:13:22;14.70;99.90
46676;DHT22;32412;51.478;5.694;2022-09-17T17:15:48;14.70;99.90
46676;DHT22;32412;51.478;5.694;2022-09-17T17:18:14;14.70;99.90
46676;DHT22;32412;51.478;5.694;2022-09-17T17:20:39;14.70;99.90
46676;DHT22;32412;51.478;5.694;2022-09-17T17:23:05;14.60;99.90
46676;DHT22;32412;51.478;5.694;2022-09-17T17:25:31;14.60;99.90
46676;DHT22;32412;51.478;5.694;2022-09-17T17:27:57;14.60;99.90
46676;DHT22;32412;51.478;5.694;2022-09-17T17:30:23;14.50;99.90
46676;DHT22;32412;51.478;5.694;2022-09-17T17:32:50;14.60;99.90
46676;DHT22;32412;51.478;5.694;2022-09-17T17:35:18;14.50;99.90
46676;DHT22;32412;51.478;5.694;2022-09-17T17:37:44;14.50;99.90
46676;DHT22;32412;51.478;5.694;2022-09-17T17:40:11;14.50;99.90
46676;DHT22;32412;51.478;5.694;2022-09-17T17:42:37;14.50;99.90
46676;DHT22;32412;51.478;5.694;2022-09-17T17:45:05;14.50;99.90
46676;DHT22;32412;51.478;5.694;2022-09-17T17:47:37;14.50;99.90
46676;DHT22;32412;51.478;5.694;2022-09-17T17:50:05;14.50;99.90
46676;DHT22;32412;51.478;5.694;2022-09-17T17:52:35;14.40;99.90
46676;DHT22;32412;51.478;5.694;2022-09-17T17:55:06;14.40;99.90
46676;DHT22;32412;51.478;5.694;2022-09-17T17:57:37;14.30;99.90
46676;DHT22;32412;51.478;5.694;2022-09-17T18:00:09;14.20;99.90
46676;DHT22;32412;51.478;5.694;2022-09-17T18:02:39;14.20;99.90
46676;DHT22;32412;51.478;5.694;2022-09-17T18:05:05;14.10;99.90
46676;DHT22;32412;51.478;5.694;2022-09-17T18:07:31;13.90;99.90
46676;DHT22;32412;51.478;5.694;2022-09-17T18:09:58;13.70;99.90
46676;DHT22;32412;51.478;5.694;2022-09-17T18:12:23;13.50;99.90
46676;DHT22;32412;51.478;5.694;2022-09-17T18:14:49;13.40;99.90
46676;DHT22;32412;51.478;5.694;2022-09-17T18:17:15;13.20;99.90
46676;DHT22;32412;51.478;5.694;2022-09-17T18:19:40;13.10;99.90
46676;DHT22;32412;51.478;5.694;2022-09-17T18:22:06;13.00;99.90
46676;DHT22;32412;51.478;5.694;2022-09-17T18:24:32;13.00;99.90
46676;DHT22;32412;51.478;5.694;2022-09-17T18:26:57;13.00;99.90
46676;DHT22;32412;51.478;5.694;2022-09-17T18:29:23;13.00;99.90
46676;DHT22;32412;51.478;5.694;2022-09-17T18:31:48;13.00;99.90
46676;DHT22;32412;51.478;5.694;2022-09-17T18:34:15;13.00;99.90
46676;DHT22;32412;51.478;5.694;2022-09-17T18:36:41;13.00;99.90
46676;DHT22;32412;51.478;5.694;2022-09-17T18:39:10;12.90;99.90
46676;DHT22;32412;51.478;5.694;2022-09-17T18:41:38;13.00;99.90
46676;DHT22;32412;51.478;5.694;2022-09-17T18:44:09;13.00;99.90
46676;DHT22;32412;51.478;5.694;2022-09-17T18:46:35;13.00;99.90
46676;DHT22;32412;51.478;5.694;2022-09-17T18:49:02;13.00;99.90
46676;DHT22;32412;51.478;5.694;2022-09-17T18:51:28;12.90;99.90
46676;DHT22;32412;51.478;5.694;2022-09-17T18:53:54;12.90;99.90
46676;DHT22;32412;51.478;5.694;2022-09-17T18:56:26;12.90;99.90
46676;DHT22;32412;51.478;5.694;2022-09-17T18:58:54;12.90;99.90
46676;DHT22;32412;51.478;5.694;2022-09-17T19:01:22;12.80;99.90
46676;DHT22;32412;51.478;5.694;2022-09-17T19:03:48;12.70;99.90
46676;DHT22;32412;51.478;5.694;2022-09-17T19:06:15;12.80;99.90
46676;DHT22;32412;51.478;5.694;2022-09-17T19:08:42;12.80;99.90
46676;DHT22;32412;51.478;5.694;2022-09-17T19:11:08;12.80;99.90
46676;DHT22;32412;51.478;5.694;2022-09-17T19:13:38;12.80;99.90
46676;DHT22;32412;51.478;5.694;2022-09-17T19:16:05;12.80;99.90
46676;DHT22;32412;51.478;5.694;2022-09-17T19:18:32;12.80;99.90
46676;DHT22;32412;51.478;5.694;2022-09-17T19:21:04;12.60;99.90
46676;DHT22;32412;51.478;5.694;2022-09-17T19:23:30;12.50;99.90
46676;DHT22;32412;51.478;5.694;2022-09-17T19:26:03;12.30;99.90
46676;DHT22;32412;51.478;5.694;2022-09-17T19:28:29;12.20;99.90
46676;DHT22;32412;51.478;5.694;2022-09-17T19:30:55;12.20;99.90
46676;DHT22;32412;51.478;5.694;2022-09-17T19:33:20;12.20;99.90
46676;DHT22;32412;51.478;5.694;2022-09-17T19:35:46;12.20;99.90